Time;durP1;ratioP1;P1;durP2;ratioP2;P2;SDS_P1;SDS_P2;PMS_P1;PMS_P2;Temp;Humidity;BMP_temperature;BMP_pressure;BME280_temperature;BME280_humidity;BME280_pressure;Samples;Min_cycle;Max_cycle;Signal;HPM_P1;HPM_P2
2022/10/10 00:01:21;;;;;;;0.70;0.70;;;;;;;13.11;55.24;100179.25;4501369;31;33895;-75
2022/10/10 00:03:49;;;;;;;0.40;0.40;;;;;;;12.34;58.00;100172.75;4500124;31;35027;-75
2022/10/10 00:06:17;;;;;;;2.30;1.50;;;;;;;12.30;58.40;100186.66;4501128;31;34382;-75
2022/10/10 00:08:45;;;;;;;0.50;0.50;;;;;;;12.68;55.42;100177.78;4501176;31;33500;-74
2022/10/10 00:11:20;;;;;;;0.40;0.40;;;;;;;12.55;56.28;100170.88;4500136;31;33917;-75
2022/10/10 00:13:48;;;;;;;0.47;0.47;;;;;;;12.68;55.35;100168.19;4500011;31;34921;-75
2022/10/10 00:16:16;;;;;;;0.40;0.40;;;;;;;12.51;55.61;100168.31;4500070;31;35127;-75
2022/10/10 00:18:44;;;;;;;0.40;0.40;;;;;;;12.26;57.34;100164.06;4501137;31;33259;-75
2022/10/10 00:21:12;;;;;;;0.45;0.45;;;;;;;12.25;57.12;100165.81;4501016;31;33955;-75
2022/10/10 00:23:40;;;;;;;0.30;0.30;;;;;;;12.50;55.29;100163.94;4499929;31;35127;-75
2022/10/10 00:26:08;;;;;;;1.85;1.10;;;;;;;12.34;55.86;100157.06;4500971;31;35353;-75
2022/10/10 00:28:42;;;;;;;0.62;0.62;;;;;;;12.23;56.65;100167.56;4502658;31;33312;-75
2022/10/10 00:31:10;;;;;;;0.40;0.40;;;;;;;12.20;56.28;100170.19;4502945;31;34130;-75
2022/10/10 00:33:38;;;;;;;0.50;0.50;;;;;;;12.45;55.81;100159.63;4502860;31;35118;-75
2022/10/10 00:36:06;;;;;;;0.75;0.75;;;;;;;12.41;55.55;100157.91;4502979;31;34528;-75
2022/10/10 00:38:35;;;;;;;0.40;0.40;;;;;;;12.11;54.81;100155.44;4502958;31;34336;-75
2022/10/10 00:41:03;;;;;;;0.70;0.70;;;;;;;12.30;54.95;100158.84;4501833;31;33840;-75
2022/10/10 00:43:31;;;;;;;0.32;0.32;;;;;;;12.37;55.33;100154.47;4501659;31;34900;-75
2022/10/10 00:45:59;;;;;;;0.40;0.40;;;;;;;12.56;54.39;100147.38;4501671;31;34487;-75
2022/10/10 00:48:41;;;;;;;0.40;0.40;;;;;;;12.49;55.12;100145.66;4502884;31;33393;-75
2022/10/10 00:51:13;;;;;;;0.50;0.50;;;;;;;12.60;53.18;100145.59;4501761;31;34741;-75
2022/10/10 00:53:50;;;;;;;0.50;0.50;;;;;;;12.27;53.66;100144.94;4488710;31;33617;-75
2022/10/10 00:56:23;;;;;;;0.40;0.40;;;;;;;12.55;52.83;100137.81;4502871;31;34345;-75
2022/10/10 00:58:54;;;;;;;0.50;0.50;;;;;;;12.60;52.63;100136.03;4488896;31;33661;-75
2022/10/10 01:01:22;;;;;;;0.40;0.40;;;;;;;12.29;53.94;100130.97;4501650;31;33926;-75
2022/10/10 01:03:50;;;;;;;0.45;0.45;;;;;;;12.50;51.90;100132.59;4501537;31;35012;-75
2022/10/10 01:06:18;;;;;;;0.52;0.52;;;;;;;12.36;52.51;100123.13;4501382;31;34359;-75
2022/10/10 01:08:46;;;;;;;0.43;0.43;;;;;;;12.31;53.00;100126.59;4501594;31;33377;-75
2022/10/10 01:11:35;;;;;;;0.45;0.45;;;;;;;12.38;52.47;100123.97;4501427;31;34552;-75
2022/10/10 01:14:07;;;;;;;0.40;0.40;;;;;;;12.31;52.55;100125.75;4501649;31;34516;-75
2022/10/10 01:16:57;;;;;;;1.02;1.02;;;;;;;12.26;52.01;100124.91;4502728;31;35187;-75
2022/10/10 01:19:41;;;;;;;0.50;0.50;;;;;;;12.36;52.37;100131.81;4501637;31;33494;-75
2022/10/10 01:22:37;;;;;;;0.40;0.40;;;;;;;12.49;51.87;100127.38;4501495;31;34810;-75
2022/10/10 01:25:39;;;;;;;0.40;0.40;;;;;;;12.56;51.65;100121.25;4502653;31;35988;-75
2022/10/10 01:28:34;;;;;;;0.45;0.45;;;;;;;12.30;52.16;100119.66;4501463;31;34401;-75
2022/10/10 01:31:05;;;;;;;0.40;0.40;;;;;;;12.16;52.41;100121.47;4501426;31;34190;-75
2022/10/10 01:33:45;;;;;;;0.40;0.40;;;;;;;12.47;51.84;100119.56;4501490;31;34061;-75
2022/10/10 01:36:27;;;;;;;0.62;0.62;;;;;;;12.12;52.05;100119.75;4501397;31;35925;-75
2022/10/10 01:39:16;;;;;;;0.40;0.40;;;;;;;12.36;51.75;100112.69;4501065;31;34417;-74
2022/10/10 01:41:57;;;;;;;0.45;0.45;;;;;;;12.46;51.54;100111.75;4502520;31;33568;-75
2022/10/10 01:44:24;;;;;;;0.30;0.30;;;;;;;12.49;51.49;100114.31;4501353;31;33942;-75
2022/10/10 01:46:53;;;;;;;0.73;0.73;;;;;;;12.49;51.67;100120.44;4488258;31;35303;-75
2022/10/10 01:49:28;;;;;;;0.50;0.50;;;;;;;12.21;52.24;100111.00;4502329;31;34402;-75
2022/10/10 01:52:02;;;;;;;0.50;0.50;;;;;;;12.42;51.92;100112.63;4502392;31;33504;-75
2022/10/10 01:54:36;;;;;;;0.40;0.40;;;;;;;12.45;51.32;100112.63;4501382;31;34720;-75
2022/10/10 01:57:13;;;;;;;0.45;0.45;;;;;;;12.33;51.49;100114.44;4502353;31;35859;-75
2022/10/10 01:59:41;;;;;;;0.30;0.30;;;;;;;12.34;51.99;100125.75;4501288;31;34565;-75
2022/10/10 02:02:35;;;;;;;0.30;0.30;;;;;;;12.30;52.20;100119.66;4502305;31;33370;-75
2022/10/10 02:05:09;;;;;;;0.52;0.52;;;;;;;12.05;53.69;100121.53;4491521;31;34771;-75
2022/10/10 02:07:42;;;;;;;0.60;0.60;;;;;;;11.99;54.10;100112.84;4502034;31;35073;-75
2022/10/10 02:10:11;;;;;;;0.68;0.68;;;;;;;12.08;53.02;100110.19;4501064;31;35242;-75
2022/10/10 02:12:39;;;;;;;0.40;0.40;;;;;;;12.03;53.30;100106.72;4488162;31;33553;-75
2022/10/10 02:15:11;;;;;;;0.75;0.60;;;;;;;12.18;52.72;100106.66;4501044;31;34740;-75
2022/10/10 02:17:42;;;;;;;0.50;0.50;;;;;;;12.56;52.03;100110.78;4501213;31;36216;-75
2022/10/10 02:20:11;;;;;;;0.40;0.40;;;;;;;12.48;52.14;100107.38;4475006;31;33727;-75
2022/10/10 02:22:42;;;;;;;0.70;0.70;;;;;;;12.36;52.09;100110.06;4501259;31;32539;-75
2022/10/10 02:25:10;;;;;;;0.50;0.50;;;;;;;12.23;52.64;100112.75;4501286;31;34685;-75
2022/10/10 02:27:49;;;;;;;0.40;0.40;;;;;;;12.01;53.67;100111.09;4500939;31;35058;-75
2022/10/10 02:30:17;;;;;;;0.50;0.50;;;;;;;12.20;53.34;100107.53;4488028;31;34115;-75
2022/10/10 02:32:51;;;;;;;0.40;0.40;;;;;;;12.16;53.46;100117.97;4502171;31;33537;-75
2022/10/10 02:35:24;;;;;;;0.40;0.40;;;;;;;12.27;52.05;100109.22;4501249;31;34889;-75
2022/10/10 02:37:53;;;;;;;0.50;0.50;;;;;;;12.16;53.34;100116.25;4487980;31;35143;-75
2022/10/10 02:40:24;;;;;;;0.50;0.50;;;;;;;11.90;54.37;100113.72;4500831;31;34443;-75
2022/10/10 02:42:52;;;;;;;0.30;0.30;;;;;;;12.13;53.22;100111.03;4501111;31;32620;-75
2022/10/10 02:45:22;;;;;;;1.87;1.75;;;;;;;12.01;53.11;100106.75;4500717;31;34614;-75
2022/10/10 02:47:51;;;;;;;1.00;0.75;;;;;;;12.05;52.85;100112.81;4500893;31;35914;-75
2022/10/10 02:50:20;;;;;;;0.40;0.40;;;;;;;11.90;53.96;100111.13;4499895;31;34378;-75
2022/10/10 02:52:48;;;;;;;0.40;0.40;;;;;;;11.79;53.47;100116.38;4500761;31;33220;-75
2022/10/10 02:55:16;;;;;;;0.40;0.40;;;;;;;12.16;53.51;100116.25;4502075;31;33975;-75
2022/10/10 02:57:44;;;;;;;0.77;0.77;;;;;;;12.37;52.57;100110.06;4500723;31;35521;-75
2022/10/10 03:00:13;;;;;;;0.50;0.50;;;;;;;12.31;53.50;100110.94;4488104;31;33940;-75
2022/10/10 03:02:40;;;;;;;0.43;0.43;;;;;;;11.93;54.31;100108.53;4502011;31;33427;-75
2022/10/10 03:05:09;;;;;;;0.70;0.70;;;;;;;11.98;54.11;100100.66;4501957;31;34708;-75
2022/10/10 03:07:37;;;;;;;0.50;0.50;;;;;;;11.84;54.41;100098.97;4501681;31;34941;-75
2022/10/10 03:10:06;;;;;;;0.50;0.50;;;;;;;12.15;54.10;100104.06;4500608;31;35040;-75
2022/10/10 03:12:34;;;;;;;0.40;0.40;;;;;;;12.22;53.23;100102.31;4501885;31;33416;-75
2022/10/10 03:15:03;;;;;;;0.50;0.50;;;;;;;11.89;53.49;100109.38;4488020;31;34054;-75
2022/10/10 03:17:38;;;;;;;0.50;0.50;;;;;;;11.87;54.04;100104.16;4500773;31;35963;-75
2022/10/10 03:20:07;;;;;;;0.40;0.40;;;;;;;11.93;53.96;100108.53;4500629;31;33826;-75
2022/10/10 03:22:35;;;;;;;0.40;0.40;;;;;;;11.58;56.41;100110.34;4500667;31;33361;-75
2022/10/10 03:25:03;;;;;;;0.50;0.50;;;;;;;11.62;55.16;100100.75;4501720;31;33935;-75
2022/10/10 03:27:31;;;;;;;0.40;0.40;;;;;;;11.84;54.61;100096.34;4501741;31;35978;-75
2022/10/10 03:29:59;;;;;;;0.40;0.40;;;;;;;11.85;54.82;100098.06;4501563;31;34295;-75
2022/10/10 03:32:27;;;;;;;0.40;0.40;;;;;;;11.52;55.56;100102.53;4501627;31;33266;-75
2022/10/10 03:34:55;;;;;;;0.50;0.50;;;;;;;11.55;55.61;100097.28;4500556;31;34092;-75
2022/10/10 03:37:23;;;;;;;0.75;0.70;;;;;;;11.61;55.39;100100.75;4500375;31;34910;-74
2022/10/10 03:39:51;;;;;;;0.40;0.40;;;;;;;12.00;54.02;100093.69;4501708;31;34924;-75
2022/10/10 03:42:19;;;;;;;0.50;0.50;;;;;;;11.87;54.80;100098.94;4501576;31;33541;-75
2022/10/10 03:44:47;;;;;;;0.55;0.55;;;;;;;11.95;54.19;100097.19;4500421;31;33907;-75
2022/10/10 03:47:14;;;;;;;0.68;0.68;;;;;;;11.84;54.61;100106.78;4501533;31;34916;-75
2022/10/10 03:49:43;;;;;;;0.55;0.55;;;;;;;12.05;53.83;100098.03;4501496;31;34447;-75
2022/10/10 03:52:10;;;;;;;0.80;0.80;;;;;;;11.61;55.31;100100.75;4500280;31;34357;-75
2022/10/10 03:54:38;;;;;;;2.58;2.15;;;;;;;11.53;56.29;100093.81;4501531;31;34004;-75
2022/10/10 03:57:06;;;;;;;0.85;0.77;;;;;;;11.90;54.65;100098.06;4500185;31;35982;-75
2022/10/10 03:59:34;;;;;;;0.40;0.40;;;;;;;11.61;56.45;100095.53;4501310;31;34460;-75
2022/10/10 04:02:02;;;;;;;0.40;0.40;;;;;;;11.57;55.31;100085.09;4501135;31;33428;-75
2022/10/10 04:04:30;;;;;;;0.98;0.98;;;;;;;11.50;55.56;100091.22;4500114;31;34736;-75
2022/10/10 04:06:58;;;;;;;0.68;0.68;;;;;;;11.66;54.98;100092.03;4499748;31;35940;-75
2022/10/10 04:09:26;;;;;;;0.52;0.52;;;;;;;12.20;53.37;100091.00;4501271;31;34428;-75
2022/10/10 04:11:54;;;;;;;4.22;3.40;;;;;;;11.85;54.65;100090.25;4501138;31;33287;-75
2022/10/10 04:14:22;;;;;;;0.50;0.50;;;;;;;12.10;54.52;100091.03;4501146;31;34544;-75
2022/10/10 04:16:49;;;;;;;0.60;0.60;;;;;;;11.93;54.54;100085.03;4499928;31;35786;-75
2022/10/10 04:19:17;;;;;;;0.40;0.40;;;;;;;11.87;54.35;100093.72;4499907;31;34416;-75
2022/10/10 04:21:45;;;;;;;0.43;0.43;;;;;;;11.84;54.75;100080.69;4501083;31;34330;-75
2022/10/10 04:24:13;;;;;;;0.57;0.57;;;;;;;11.87;54.34;100085.88;4501016;31;34740;-75
2022/10/10 04:26:41;;;;;;;0.73;0.73;;;;;;;11.80;55.11;100076.34;4500992;31;35103;-75
2022/10/10 04:29:09;;;;;;;0.50;0.50;;;;;;;11.64;55.19;100085.97;4499722;31;33381;-75
2022/10/10 04:31:37;;;;;;;0.40;0.40;;;;;;;11.81;55.20;100083.31;4499809;31;33761;-75
2022/10/10 04:34:05;;;;;;;0.32;0.32;;;;;;;11.35;57.45;100089.53;4500849;31;34037;-75
2022/10/10 04:36:33;;;;;;;0.40;0.40;;;;;;;11.91;54.48;100087.66;4500841;31;35156;-75
2022/10/10 04:39:01;;;;;;;0.73;0.73;;;;;;;11.88;54.82;100087.63;4499623;31;35029;-76
2022/10/10 04:41:29;;;;;;;0.95;0.95;;;;;;;11.69;55.35;100088.56;4486783;31;32940;-76
2022/10/10 04:43:57;;;;;;;0.40;0.40;;;;;;;11.51;55.80;100090.34;4499588;31;34037;-76
2022/10/10 04:46:25;;;;;;;0.73;0.73;;;;;;;11.48;56.17;100090.34;4500649;31;34998;-76
2022/10/10 04:48:53;;;;;;;0.73;0.73;;;;;;;11.49;56.78;100091.25;4500694;31;35162;-76
2022/10/10 04:51:21;;;;;;;0.52;0.52;;;;;;;11.87;55.76;100096.31;4500615;31;34157;-76
2022/10/10 04:53:49;;;;;;;0.47;0.47;;;;;;;11.46;57.19;100097.31;4500613;31;34749;-76
2022/10/10 04:56:17;;;;;;;0.40;0.40;;;;;;;11.35;57.12;100099.94;4497049;31;35936;-75
2022/10/10 04:58:45;;;;;;;0.50;0.50;;;;;;;11.38;56.52;100104.28;4494351;31;34207;-76
2022/10/10 05:01:13;;;;;;;0.45;0.45;;;;;;;11.52;56.10;100106.88;4486888;31;33378;-76
2022/10/10 05:03:41;;;;;;;0.70;0.70;;;;;;;11.55;55.77;100101.66;4496431;31;34824;-76
2022/10/10 05:06:09;;;;;;;0.50;0.50;;;;;;;11.69;55.75;100099.88;4490891;31;35021;-76
2022/10/10 05:08:37;;;;;;;0.40;0.40;;;;;;;11.39;56.27;100106.03;4475838;32;33695;-76
2022/10/10 05:11:05;;;;;;;0.40;0.40;;;;;;;11.63;56.07;100099.91;4495906;31;32690;-75
2022/10/10 05:13:33;;;;;;;0.50;0.50;;;;;;;11.41;56.59;100104.28;4487865;31;34023;-75
2022/10/10 05:16:01;;;;;;;0.43;0.43;;;;;;;11.64;56.83;100098.16;4496038;31;34807;-75
2022/10/10 05:18:29;;;;;;;0.98;0.93;;;;;;;11.72;56.28;100097.25;4493962;31;34220;-75
2022/10/10 05:20:57;;;;;;;0.57;0.57;;;;;;;11.55;56.83;100096.44;4489886;31;33294;-74
2022/10/10 05:23:30;;;;;;;0.40;0.40;;;;;;;11.86;55.72;100098.94;4498330;31;34719;-74
2022/10/10 05:25:58;;;;;;;1.33;1.30;;;;;;;11.56;56.95;100108.63;4490722;31;35989;-74
2022/10/10 05:28:26;;;;;;;0.55;0.55;;;;;;;11.74;55.84;100094.66;4501066;31;33759;-76
2022/10/10 05:30:55;;;;;;;0.40;0.40;;;;;;;11.58;56.50;100106.88;4502518;31;33328;-76
2022/10/10 05:33:22;;;;;;;0.40;0.40;;;;;;;12.00;55.84;100104.13;4502570;31;34042;-76
2022/10/10 05:35:50;;;;;;;1.25;1.20;;;;;;;12.38;54.50;100108.31;4502559;31;35097;-76
2022/10/10 05:38:18;;;;;;;0.40;0.40;;;;;;;12.09;55.24;100104.13;4499897;31;34609;-77
2022/10/10 05:40:46;;;;;;;0.70;0.70;;;;;;;12.43;53.90;100109.16;4501274;31;32458;-76
2022/10/10 05:43:14;;;;;;;1.00;1.00;;;;;;;12.49;55.09;100116.94;4502507;31;34721;-76
2022/10/10 05:45:42;;;;;;;0.35;0.35;;;;;;;12.55;53.81;100114.31;4502445;31;35058;-76
2022/10/10 05:48:10;;;;;;;0.57;0.57;;;;;;;12.97;52.98;100112.25;4502440;31;34390;-76
2022/10/10 05:50:39;;;;;;;0.65;0.65;;;;;;;13.07;53.52;100106.03;4502338;31;34233;-76
2022/10/10 05:53:07;;;;;;;1.62;1.25;;;;;;;13.57;51.64;100113.47;4502435;31;33980;-76
2022/10/10 05:55:35;;;;;;;0.40;0.40;;;;;;;13.97;51.44;100113.00;4501165;31;36007;-77
2022/10/10 05:58:04;;;;;;;0.70;0.70;;;;;;;14.44;49.27;100108.91;4488229;31;34137;-76
2022/10/10 06:00:33;;;;;;;0.70;0.70;;;;;;;15.23;49.51;100113.81;4502375;31;33416;-77
2022/10/10 06:03:01;;;;;;;0.50;0.50;;;;;;;16.02;45.65;100123.72;4502273;31;34783;-75
2022/10/10 06:05:29;;;;;;;0.73;0.70;;;;;;;16.49;44.10;100119.19;4501111;31;35108;-77
2022/10/10 06:07:57;;;;;;;0.40;0.40;;;;;;;16.56;44.04;100119.94;4500975;31;34358;-77
2022/10/10 06:10:41;;;;;;;0.88;0.60;;;;;;;16.54;44.33;100124.38;4501281;31;34359;-76
2022/10/10 06:13:11;;;;;;;0.55;0.55;;;;;;;16.67;44.19;100120.53;4501099;31;34670;-76
2022/10/10 06:15:39;;;;;;;0.95;0.90;;;;;;;17.12;42.27;100114.25;4501039;31;35064;-77
2022/10/10 06:18:07;;;;;;;0.60;0.60;;;;;;;16.65;43.92;100111.81;4502225;31;34975;-77
2022/10/10 06:20:36;;;;;;;0.45;0.45;;;;;;;16.67;43.33;100111.78;4501096;31;33381;-77
2022/10/10 06:23:06;;;;;;;0.40;0.40;;;;;;;16.47;43.59;100122.78;4488093;31;34067;-77
2022/10/10 06:25:35;;;;;;;0.60;0.60;;;;;;;16.54;43.44;100108.59;4501012;31;34859;-77
2022/10/10 06:28:08;;;;;;;0.22;0.22;;;;;;;16.64;44.55;100119.75;4501070;31;35237;-77
2022/10/10 06:30:41;;;;;;;0.37;0.37;;;;;;;15.90;46.34;100111.72;4502062;31;34206;-76
2022/10/10 06:33:10;;;;;;;0.40;0.40;;;;;;;16.19;44.11;100114.63;4502072;31;33948;-76
2022/10/10 06:35:42;;;;;;;0.50;0.50;;;;;;;16.40;44.34;100110.66;4500924;31;35997;-75
2022/10/10 06:38:11;;;;;;;0.73;0.73;;;;;;;15.87;46.66;100113.53;4500999;31;34468;-79
2022/10/10 06:40:39;;;;;;;0.73;0.73;;;;;;;16.37;45.30;100119.47;4500995;31;34319;-75
2022/10/10 06:43:10;;;;;;;0.20;0.20;;;;;;;16.15;44.30;100110.31;4495129;31;33951;-73
2022/10/10 06:45:46;;;;;;;0.50;0.50;;;;;;;16.01;45.22;100111.50;4485104;31;34627;-72
2022/10/10 06:48:19;;;;;;;0.77;0.77;;;;;;;16.05;45.83;100107.88;4491467;31;35186;-71
2022/10/10 06:51:05;;;;;;;0.93;0.93;;;;;;;16.09;45.68;100106.94;4492707;31;33311;-72
2022/10/10 06:53:33;;;;;;;11.15;2.35;;;;;;;16.20;45.02;100116.34;4497601;31;34441;-74
2022/10/10 06:56:02;;;;;;;0.37;0.37;;;;;;;15.90;44.45;100116.06;4488360;31;35114;-71
2022/10/10 06:58:30;;;;;;;0.52;0.52;;;;;;;15.90;44.57;100109.09;4493544;31;35011;-73
2022/10/10 07:01:00;;;;;;;0.55;0.50;;;;;;;15.13;47.78;100113.09;4494483;31;34338;-76
2022/10/10 07:03:29;;;;;;;1.10;0.95;;;;;;;15.66;46.72;100115.63;4488439;31;33017;-76
2022/10/10 07:05:59;;;;;;;17.73;4.12;;;;;;;15.32;47.64;100116.28;4496860;31;36013;-76
2022/10/10 07:08:28;;;;;;;0.50;0.50;;;;;;;15.40;46.42;100113.50;4477976;31;33548;-71
2022/10/10 07:10:56;;;;;;;0.30;0.30;;;;;;;15.74;46.20;100110.22;4490448;31;33352;-72
2022/10/10 07:13:24;;;;;;;0.40;0.40;;;;;;;15.77;46.18;100111.97;4497035;31;33161;-71
2022/10/10 07:15:54;;;;;;;0.43;0.43;;;;;;;15.78;44.90;100118.97;4488421;31;35057;-72
2022/10/10 07:18:22;;;;;;;0.40;0.40;;;;;;;15.70;44.63;100112.06;4494232;31;32830;-72
2022/10/10 07:20:50;;;;;;;0.50;0.50;;;;;;;15.71;45.49;100112.94;4493315;31;33418;-72
2022/10/10 07:23:18;;;;;;;0.30;0.30;;;;;;;16.05;45.56;100112.28;4489538;31;34786;-73
2022/10/10 07:25:46;;;;;;;0.30;0.30;;;;;;;16.17;45.92;100117.28;4497308;31;34907;-71
2022/10/10 07:28:14;;;;;;;0.75;0.60;;;;;;;16.32;44.43;100120.47;4490545;31;34279;-72
2022/10/10 07:30:44;;;;;;;0.40;0.40;;;;;;;16.49;44.92;100119.19;4493167;31;33533;-71
2022/10/10 07:33:13;;;;;;;0.40;0.40;;;;;;;16.35;44.65;100113.38;4495790;31;33190;-71
2022/10/10 07:35:41;;;;;;;0.70;0.70;;;;;;;16.61;43.40;100106.69;4487529;31;34972;-72
2022/10/10 07:38:10;;;;;;;0.40;0.40;;;;;;;16.55;43.39;100117.34;4496552;31;34382;-74
2022/10/10 07:40:40;;;;;;;0.80;0.80;;;;;;;16.89;43.71;100116.56;4492997;31;33522;-74
2022/10/10 07:43:07;;;;;;;1.45;1.12;;;;;;;16.74;43.31;100113.38;4489055;31;33320;-76
2022/10/10 07:45:36;;;;;;;0.50;0.50;;;;;;;17.53;43.21;100104.41;4499423;31;35812;-76
2022/10/10 07:48:04;;;;;;;0.40;0.40;;;;;;;17.77;41.97;100113.41;4500362;31;34468;-77
2022/10/10 07:50:32;;;;;;;0.50;0.50;;;;;;;17.97;41.19;100112.84;4500397;31;32864;-73
2022/10/10 07:53:00;;;;;;;0.85;0.85;;;;;;;18.26;40.00;100105.84;4501374;31;34744;-76
2022/10/10 07:55:28;;;;;;;1.33;1.23;;;;;;;18.00;42.12;100107.50;4500057;31;35164;-76
2022/10/10 07:57:58;;;;;;;0.40;0.40;;;;;;;18.50;40.11;100108.66;4501687;31;34465;-72
2022/10/10 08:00:26;;;;;;;0.37;0.37;;;;;;;18.52;41.14;100106.84;4501321;31;33511;-75
2022/10/10 08:02:54;;;;;;;0.30;0.30;;;;;;;18.77;39.85;100106.91;4501292;31;34715;-76
2022/10/10 08:05:22;;;;;;;1.20;1.10;;;;;;;18.90;40.12;100102.13;4495033;31;35136;-75
2022/10/10 08:07:50;;;;;;;0.55;0.55;;;;;;;18.95;43.31;100108.13;4497959;31;35267;-75
2022/10/10 08:10:19;;;;;;;0.30;0.30;;;;;;;19.05;38.58;100104.28;4489691;31;34214;-75
2022/10/10 08:12:47;;;;;;;2.20;1.12;;;;;;;18.66;39.64;100109.06;4491489;31;34693;-79
2022/10/10 08:15:15;;;;;;;0.30;0.30;;;;;;;18.99;38.91;100115.06;4494487;31;35065;-76
2022/10/10 08:17:44;;;;;;;1.85;1.15;;;;;;;19.00;39.64;100113.25;4486496;31;34338;-73
2022/10/10 08:20:13;;;;;;;0.50;0.50;;;;;;;19.13;40.00;100104.87;4496748;31;33355;-75
2022/10/10 08:22:41;;;;;;;0.57;0.57;;;;;;;19.56;40.54;100101.69;4477992;31;33470;-85
2022/10/10 08:25:10;;;;;;;0.60;0.60;;;;;;;19.84;40.67;100107.72;4463480;32;35224;-77
2022/10/10 08:27:38;;;;;;;0.25;0.25;;;;;;;20.18;38.70;100093.22;4485101;32;34380;-77
2022/10/10 08:30:06;;;;;;;1.12;1.12;;;;;;;20.67;37.66;100097.56;4485110;32;34109;-78
2022/10/10 08:32:34;;;;;;;0.40;0.40;;;;;;;20.35;36.30;100104.94;4470977;32;33313;-77
2022/10/10 08:35:03;;;;;;;0.60;0.60;;;;;;;20.86;37.24;100093.25;4483106;32;35877;-72
2022/10/10 08:37:31;;;;;;;0.73;0.73;;;;;;;20.43;35.74;100098.41;4484400;32;35004;-80
2022/10/10 08:40:05;;;;;;;0.47;0.47;;;;;;;20.67;35.59;100086.97;4483819;32;33517;-76
2022/10/10 08:42:38;;;;;;;0.45;0.45;;;;;;;20.79;35.78;100092.63;4483771;32;33921;-76
2022/10/10 08:45:25;;;;;;;0.65;0.55;;;;;;;20.87;34.86;100089.66;4483856;32;35117;-76
2022/10/10 08:47:57;;;;;;;1.70;1.40;;;;;;;20.88;36.72;100086.09;4485044;32;34309;-77
2022/10/10 08:50:40;;;;;;;1.30;1.20;;;;;;;20.94;33.33;100080.53;4485890;32;33434;-76
2022/10/10 08:53:17;;;;;;;0.82;0.82;;;;;;;20.73;33.98;100082.25;4486880;32;34078;-76
2022/10/10 08:55:45;;;;;;;0.43;0.43;;;;;;;20.90;32.85;100076.28;4485834;32;34945;-76
2022/10/10 08:58:46;;;;;;;0.30;0.30;;;;;;;20.98;33.24;100076.84;4485809;32;35188;-76
2022/10/10 09:01:20;;;;;;;0.40;0.40;;;;;;;21.11;35.02;100073.69;4452749;32;33497;-76
2022/10/10 09:03:54;;;;;;;0.47;0.47;;;;;;;21.75;32.10;100073.50;4485837;32;33941;-75
2022/10/10 09:07:00;;;;;;;0.57;0.57;;;;;;;21.80;31.83;100069.81;4486922;32;35173;-75
2022/10/10 09:09:39;;;;;;;0.50;0.50;;;;;;;21.98;32.80;100076.06;4486844;32;35095;-74
2022/10/10 09:12:11;;;;;;;0.50;0.50;;;;;;;22.43;30.91;100069.53;4485652;32;33400;-76
2022/10/10 09:15:11;;;;;;;0.10;0.10;;;;;;;22.72;32.80;100071.63;4486836;32;34848;-76
2022/10/10 09:18:01;;;;;;;0.20;0.20;;;;;;;22.48;30.18;100073.69;4486724;32;34998;-74
2022/10/10 09:20:32;;;;;;;0.35;0.35;;;;;;;23.19;29.90;100064.00;4485606;32;34561;-75
2022/10/10 09:23:16;;;;;;;0.52;0.40;;;;;;;23.49;29.14;100072.22;4486889;32;33862;-75
2022/10/10 09:25:59;;;;;;;0.20;0.20;;;;;;;23.99;30.02;100063.34;4486802;32;33831;-76
2022/10/10 09:28:57;;;;;;;0.43;0.43;;;;;;;24.70;27.48;100064.72;4485662;32;35134;-73
2022/10/10 09:31:38;;;;;;;0.30;0.30;;;;;;;23.70;29.30;100061.34;4486840;32;34502;-76
2022/10/10 09:34:19;;;;;;;0.35;0.35;;;;;;;23.64;30.02;100065.22;4485615;32;33547;-76
2022/10/10 09:36:47;;;;;;;0.20;0.20;;;;;;;24.73;28.12;100069.00;4486758;32;33926;-73
2022/10/10 09:39:22;;;;;;;0.28;0.28;;;;;;;24.51;27.91;100069.34;4485350;32;35937;-75
2022/10/10 09:41:55;;;;;;;0.70;0.70;;;;;;;24.48;26.62;100064.19;4485590;32;34368;-75
2022/10/10 09:44:23;;;;;;;1.75;0.98;;;;;;;24.21;27.59;100070.13;4485611;32;33405;-74
2022/10/10 09:46:52;;;;;;;0.57;0.57;;;;;;;23.99;28.63;100059.81;4486598;32;34011;-74
2022/10/10 09:49:21;;;;;;;1.95;1.50;;;;;;;23.71;29.06;100058.63;4486419;32;35941;-75
2022/10/10 09:51:49;;;;;;;0.73;0.60;;;;;;;23.84;31.06;100061.50;4486486;32;34377;-75
2022/10/10 09:54:18;;;;;;;0.40;0.40;;;;;;;24.49;30.21;100057.94;4486457;32;33332;-74
2022/10/10 09:56:53;;;;;;;1.42;1.10;;;;;;;24.12;29.37;100060.84;4485504;32;33932;-74
2022/10/10 09:59:43;;;;;;;0.52;0.52;;;;;;;24.65;28.29;100058.78;4472399;32;34584;-75
2022/10/10 10:02:23;;;;;;;0.82;0.45;;;;;;;24.50;27.92;100057.00;4485386;32;34387;-74
2022/10/10 10:04:52;;;;;;;0.55;0.47;;;;;;;24.76;29.29;100045.72;4485376;32;33154;-74
2022/10/10 10:07:29;;;;;;;0.40;0.40;;;;;;;25.20;27.59;100053.81;4485358;32;34719;-75
2022/10/10 10:10:03;;;;;;;0.32;0.32;;;;;;;25.46;26.45;100052.28;4485353;32;35100;-73
2022/10/10 10:12:40;;;;;;;0.57;0.57;;;;;;;25.25;26.06;100057.94;4485335;32;34373;-75
2022/10/10 10:15:24;;;;;;;0.77;0.77;;;;;;;24.83;27.90;100050.66;4485300;32;33382;-75
2022/10/10 10:18:12;;;;;;;0.22;0.22;;;;;;;25.00;29.29;100053.19;4486391;32;33982;-75
2022/10/10 10:20:42;;;;;;;0.20;0.20;;;;;;;24.97;27.30;100045.38;4485291;32;34996;-75
2022/10/10 10:23:22;;;;;;;0.10;0.10;;;;;;;25.80;26.59;100042.16;4485158;32;34337;-75
2022/10/10 10:25:59;;;;;;;0.30;0.30;;;;;;;26.19;25.72;100038.81;4486394;32;33402;-75
2022/10/10 10:28:28;;;;;;;0.30;0.30;;;;;;;26.04;26.96;100037.97;4486411;32;33957;-74
2022/10/10 10:30:57;;;;;;;3.53;1.10;;;;;;;25.41;26.47;100035.69;4486358;32;35045;-75
2022/10/10 10:34:05;;;;;;;0.60;0.60;;;;;;;25.68;26.57;100033.16;4486241;32;35091;-75
2022/10/10 10:36:45;;;;;;;0.13;0.13;;;;;;;25.48;26.64;100037.03;4485124;32;33436;-75
2022/10/10 10:39:33;;;;;;;0.45;0.30;;;;;;;25.43;25.73;100024.00;4486270;32;33978;-75
2022/10/10 10:42:26;;;;;;;0.30;0.30;;;;;;;25.44;27.43;100030.19;4485053;32;35116;-74
2022/10/10 10:45:00;;;;;;;0.10;0.10;;;;;;;25.90;26.53;100014.81;4486278;32;34379;-73
2022/10/10 10:48:06;;;;;;;0.32;0.32;;;;;;;26.11;25.57;100017.09;4486237;32;33207;-73
2022/10/10 10:50:43;;;;;;;1.20;1.10;;;;;;;26.46;24.51;100011.25;4486181;32;33987;-76
2022/10/10 10:53:30;;;;;;;0.20;0.20;;;;;;;26.25;25.45;100011.72;4486070;32;34995;-73
2022/10/10 10:56:11;;;;;;;0.35;0.35;;;;;;;26.11;25.14;100006.41;4486102;32;35128;-74
2022/10/10 10:58:54;;;;;;;0.30;0.30;;;;;;;26.53;26.44;100009.06;4484954;32;33517;-76
2022/10/10 11:01:56;;;;;;;0.30;0.30;;;;;;;26.11;28.32;100001.06;4486094;32;34124;-74
2022/10/10 11:04:37;;;;;;;0.10;0.10;;;;;;;26.56;24.98;99999.00;4485059;32;34733;-76
2022/10/10 11:07:30;;;;;;;0.20;0.20;;;;;;;26.52;24.69;99997.47;4484731;32;33592;-79
2022/10/10 11:10:29;;;;;;;0.28;0.28;;;;;;;26.03;24.31;100004.25;4484987;32;33544;-79
2022/10/10 11:13:24;;;;;;;0.60;0.60;;;;;;;25.31;25.77;99998.09;4484674;32;33961;-79
2022/10/10 11:16:01;;;;;;;1.45;0.85;;;;;;;26.11;24.67;99993.06;4485944;32;35051;-77
2022/10/10 11:18:42;;;;;;;0.35;0.30;;;;;;;25.50;24.64;99988.00;4484897;32;34382;-79
2022/10/10 11:21:16;;;;;;;0.43;0.43;;;;;;;26.22;25.18;99989.69;4484815;32;34336;-77
2022/10/10 11:23:49;;;;;;;1.10;1.00;;;;;;;25.99;26.25;99985.84;4485822;32;34701;-76
2022/10/10 11:26:23;;;;;;;0.20;0.20;;;;;;;26.18;24.08;99978.37;4484591;32;35920;-78
2022/10/10 11:28:59;;;;;;;0.15;0.15;;;;;;;26.29;24.65;99975.88;4484742;32;34390;-78
2022/10/10 11:31:33;;;;;;;0.47;0.47;;;;;;;26.06;26.23;99968.50;4484858;32;33420;-77
2022/10/10 11:34:13;;;;;;;0.20;0.20;;;;;;;26.39;22.96;99964.56;4484702;32;34017;-74
2022/10/10 11:36:43;;;;;;;1.25;1.10;;;;;;;25.43;24.92;99962.69;4486080;32;35004;-81
2022/10/10 11:39:15;;;;;;;0.40;0.40;;;;;;;25.22;24.97;99961.28;4484540;32;35081;-79
2022/10/10 11:41:49;;;;;;;0.30;0.30;;;;;;;24.77;24.83;99956.00;4485832;32;34362;-75
2022/10/10 11:44:41;;;;;;;5.28;3.72;;;;;;;24.87;24.51;99954.50;4485828;32;34815;-78
2022/10/10 11:47:27;;;;;;;0.52;0.52;;;;;;;24.41;28.16;99958.06;4485887;32;35018;-77
2022/10/10 11:50:05;;;;;;;0.37;0.37;;;;;;;24.54;26.27;99950.25;4485742;32;34570;-78
2022/10/10 11:52:58;;;;;;;0.82;0.57;;;;;;;23.91;26.92;99951.16;4485762;32;34328;-71